Flight Track Log - Related Links

Times and Time Zones

All times are in EDT time to prevent confusion due to time zone crossing. See the N143DE flight status page for this flight to view local times or setup timezone preferences in your user account.

Time Position Orientation Groundspeed Altitude Reporting Facility
EDT Latitude Longitude Course Direction KTS MPH feet Rate Location/Type
Tue 06:46:09 AM 34.0525 -84.3722 340° North 172 198 8,300  Level Atlanta Center
Tue 06:47:09 AM 34.0983 -84.3925 340° North 172 198 9,800 1,400 Climbing Atlanta Center
Tue 06:48:09 AM 34.1444 -84.4128 340° North 172 198 11,100 1,150 Climbing Atlanta Center
Tue 06:49:09 AM 34.2006 -84.4381 340° North 194 223 12,100 1,150 Climbing Atlanta Center
Tue 06:50:09 AM 34.2569 -84.4636 339° North 209 241 13,400 1,250 Climbing Atlanta Center
Tue 06:51:09 AM 34.3153 -84.4814 341° North 214 246 14,600 1,350 Climbing Atlanta Center
Tue 06:52:09 AM 34.3842 -84.4894 354° North 219 252 16,100 1,450 Climbing Atlanta Center
Tue 06:53:09 AM 34.4425 -84.4997 352° North 219 252 17,500 1,350 Climbing Atlanta Center
Tue 06:54:09 AM 34.4989 -84.5075 354° North 214 246 18,800 1,250 Climbing Atlanta Center
Tue 06:55:09 AM 34.5531 -84.5156 353° North 209 241 20,000 1,050 Climbing Atlanta Center
Tue 06:56:09 AM 34.6114 -84.5233 354° North 209 241 20,900 950 Climbing Atlanta Center
Tue 06:57:09 AM 34.6636 -84.5414 344° North 194 223 21,900 1,050 Climbing Atlanta Center
Tue 06:58:09 AM 34.7072 -84.5694 332° Northwest 183 211 23,000 950 Climbing Atlanta Center
Tue 06:59:09 AM 34.7572 -84.5875 343° North 183 211 23,800 750 Climbing Atlanta Center
Tue 07:00:09 AM 34.8094 -84.6031 346° North 183 211 24,500 650 Climbing Atlanta Center
Tue 07:01:09 AM 34.8636 -84.6183 347° North 189 217 25,100 600 Climbing Atlanta Center
Tue 07:02:09 AM 34.9197 -84.6342 347° North 189 217 25,700 450 Climbing Atlanta Center
Tue 07:03:09 AM 34.9636 -84.6497 344° North 194 223 26,000 150 Climbing Atlanta Center
Tue 07:04:09 AM 35.0303 -84.6703 346° North 209 241 26,000  Level Atlanta Center
Tue 07:05:09 AM 35.1011 -84.6886 348° North 235 270 26,000  Level Atlanta Center
Tue 07:06:09 AM 35.1678 -84.7094 346° North 241 277 26,000  Level Atlanta Center
Tue 07:07:09 AM 35.2386 -84.7278 348° North 246 283 26,000  Level Atlanta Center
Tue 07:08:09 AM 35.3094 -84.7464 348° North 252 290 26,000  Level Atlanta Center
Tue 07:09:09 AM 35.3761 -84.7647 347° North 252 290 26,000  Level Atlanta Center
Tue 07:10:09 AM 35.4469 -84.7831 348° North 252 290 26,000  Level Atlanta Center
Tue 07:11:09 AM 35.5136 -84.8042 346° North 247 284 26,000  Level Atlanta Center
Tue 07:12:09 AM 35.5803 -84.8228 347° North 247 284 26,000  Level Atlanta Center
Tue 07:13:09 AM 35.6469 -84.8436 346° North 242 278 26,000  Level Atlanta Center
Tue 07:14:09 AM 35.7114 -84.8622 347° North 242 278 26,000  Level Atlanta Center
Tue 07:15:09 AM 35.7800 -84.8808 348° North 242 278 26,000  Level Atlanta Center
Tue 07:16:09 AM 35.8550 -84.9022 347° North 242 278 26,000  Level Atlanta Center
Tue 07:17:19 AM 35.9294 -84.9247 346° North 246 283 26,000  Level Indianapolis Center
Tue 07:18:20 AM 35.9967 -84.9431 348° North 241 277 26,000  Level Indianapolis Center
Tue 07:19:21 AM 36.0642 -84.9636 346° North 247 284 26,000  Level Indianapolis Center
Tue 07:20:23 AM 36.1314 -84.9814 348° North 248 285 26,000  Level Indianapolis Center
Tue 07:21:24 AM 36.1992 -85.0025 346° North 249 287 26,000  Level Indianapolis Center
Tue 07:22:25 AM 36.2669 -85.0222 347° North 248 285 26,000  Level Indianapolis Center
Tue 07:23:26 AM 36.3344 -85.0428 346° North 249 287 26,000  Level Indianapolis Center
Tue 07:24:27 AM 36.4039 -85.0631 347° North 254 292 26,000  Level Indianapolis Center
Tue 07:25:28 AM 36.4733 -85.0828 347° North 254 292 26,000  Level Indianapolis Center
Tue 07:26:30 AM 36.5425 -85.1042 346° North 256 295 26,000  Level Indianapolis Center
Tue 07:27:31 AM 36.6258 -85.1283 347° North 255 293 26,000  Level Indianapolis Center
Tue 07:28:32 AM 36.6928 -85.1494 346° North 251 289 26,000  Level Indianapolis Center
Tue 07:29:33 AM 36.7608 -85.1678 348° North 250 288 26,000  Level Indianapolis Center
Tue 07:30:34 AM 36.8278 -85.1894 345° North 249 287 26,000  Level Indianapolis Center
Tue 07:31:36 AM 36.8944 -85.2089 347° North 247 284 26,000  Level Indianapolis Center
Tue 07:32:37 AM 36.9611 -85.2306 345° North 248 285 26,000  Level Indianapolis Center
Tue 07:33:38 AM 37.0286 -85.2481 348° North 248 285 26,000  Level Indianapolis Center
Tue 07:34:40 AM 37.1014 -85.2708 346° North 241 277 26,000  Level Indianapolis Center
Tue 07:35:41 AM 37.1669 -85.2897 347° North 241 277 26,000  Level Indianapolis Center
Tue 07:36:42 AM 37.2308 -85.3089 347° North 235 270 26,000  Level Indianapolis Center
Tue 07:37:44 AM 37.2961 -85.3303 345° North 240 276 26,000  Level Indianapolis Center
Tue 07:38:45 AM 37.3639 -85.3497 347° North 246 283 26,000  Level Indianapolis Center
Tue 07:39:47 AM 37.4303 -85.3717 345° North 246 283 26,000  Level Indianapolis Center
Tue 07:40:48 AM 37.4978 -85.3914 347° North 247 284 26,000  Level Indianapolis Center
Tue 07:41:49 AM 37.5672 -85.4125 346° North 254 292 26,000  Level Indianapolis Center
Tue 07:42:51 AM 37.6461 -85.4364 347° North 251 289 26,000  Level Indianapolis Center
Tue 07:43:52 AM 37.7131 -85.4569 346° North 248 285 26,000  Level Indianapolis Center
Tue 07:44:54 AM 37.7808 -85.4772 347° North 249 287 26,000  Level Indianapolis Center
Tue 07:45:55 AM 37.8453 -85.4978 346° North 249 287 26,000  Level Indianapolis Center
Tue 07:46:57 AM 37.9139 -85.5175 347° North 251 289 26,000  Level Indianapolis Center
Tue 07:47:58 AM 37.9806 -85.5397 345° North 250 288 26,000  Level Indianapolis Center
Tue 07:49:00 AM 38.0481 -85.5592 347° North 249 287 26,000  Level Indianapolis Center
Tue 07:50:01 AM 38.1153 -85.5819 345° North 250 288 26,000  Level Indianapolis Center
Tue 07:51:03 AM 38.1844 -85.6250 334° Northwest 231 266 26,000  Level Indianapolis Center
Tue 07:52:04 AM 38.2453 -85.6583 337° Northwest 233 268 26,000  Level Indianapolis Center
Tue 07:53:06 AM 38.3039 -85.6944 334° Northwest 233 268 26,000  Level Indianapolis Center
Tue 07:54:07 AM 38.3611 -85.7300 334° Northwest 229 264 26,000  Level Indianapolis Center
Tue 07:55:09 AM 38.4261 -85.7658 337° Northwest 244 281 26,000  Level Indianapolis Center
Tue 07:56:10 AM 38.4853 -85.8017 335° Northwest 239 275 26,000  Level Indianapolis Center
Tue 07:57:12 AM 38.5444 -85.8383 334° Northwest 237 273 26,000  Level Indianapolis Center
Tue 07:58:14 AM 38.6044 -85.8725 336° Northwest 236 272 26,000  Level Indianapolis Center
Tue 07:59:15 AM 38.6639 -85.9097 334° Northwest 237 273 26,000  Level Indianapolis Center
Tue 08:00:17 AM 38.7356 -85.9514 336° Northwest 237 273 26,000  Level Indianapolis Center
Tue 08:01:18 AM 38.7958 -85.9878 335° Northwest 238 274 26,000  Level Indianapolis Center
Tue 08:02:20 AM 38.8578 -86.0236 336° Northwest 242 278 26,000  Level Indianapolis Center
Tue 08:03:22 AM 38.9158 -86.0583 335° Northwest 242 278 26,000  Level Indianapolis Center
Tue 08:04:23 AM 38.9758 -86.0933 336° Northwest 238 274 26,000  Level Indianapolis Center
Tue 08:05:25 AM 39.0347 -86.1308 334° Northwest 238 274 26,000  Level Indianapolis Center
Tue 08:06:27 AM 39.1072 -86.1744 335° Northwest 241 277 26,000  Level Indianapolis Center
Tue 08:07:28 AM 39.1675 -86.2122 334° Northwest 242 278 26,000  Level Indianapolis Center
Tue 08:08:30 AM 39.2308 -86.2481 336° Northwest 248 285 26,000  Level Indianapolis Center
Tue 08:09:32 AM 39.2906 -86.2847 335° Northwest 240 276 26,000  Level Indianapolis Center
Tue 08:10:33 AM 39.3531 -86.3219 335° Northwest 246 283 26,000  Level Indianapolis Center
Tue 08:11:35 AM 39.4147 -86.3603 334° Northwest 247 284 26,000  Level Indianapolis Center
Tue 08:12:37 AM 39.4758 -86.3964 335° Northwest 243 280 26,000  Level Indianapolis Center
Tue 08:13:38 AM 39.5367 -86.4336 335° Northwest 242 278 26,000  Level Indianapolis Center
Tue 08:14:40 AM 39.6083 -86.4783 334° Northwest 238 274 26,000  Level Indianapolis Center
Tue 08:15:42 AM 39.6689 -86.5153 335° Northwest 239 275 26,000  Level Indianapolis Center
Tue 08:16:43 AM 39.7294 -86.5519 335° Northwest 237 273 26,000  Level Indianapolis Center
Tue 08:17:45 AM 39.7903 -86.5894 335° Northwest 240 276 26,000  Level Indianapolis Center
Tue 08:18:47 AM 39.8497 -86.6261 335° Northwest 238 274 26,000  Level Indianapolis Center
Tue 08:19:48 AM 39.9092 -86.6625 335° Northwest 236 272 26,000  Level Indianapolis Center
Tue 08:20:50 AM 39.9669 -86.6992 334° Northwest 232 267 26,000  Level Indianapolis Center
Tue 08:21:52 AM 40.0258 -86.7347 335° Northwest 232 267 26,000  Level Indianapolis Center
Tue 08:22:53 AM 40.0961 -86.7786 334° Northwest 233 268 26,000  Level Indianapolis Center
Tue 08:23:55 AM 40.1547 -86.8158 334° Northwest 235 270 26,000  Level Indianapolis Center
Tue 08:24:57 AM 40.2131 -86.8522 335° Northwest 234 269 26,000  Level Indianapolis Center
Tue 08:25:58 AM 40.2717 -86.8900 334° Northwest 235 270 26,000  Level Indianapolis Center
Tue 08:27:00 AM 40.3325 -86.9272 335° Northwest 241 277 26,000  Level Indianapolis Center
Tue 08:28:01 AM 40.3914 -86.9661 333° Northwest 238 274 26,000  Level Indianapolis Center
Tue 08:29:03 AM 40.4522 -87.0031 335° Northwest 240 276 26,000  Level Indianapolis Center
Tue 08:30:05 AM 40.5250 -87.0472 335° Northwest 242 278 26,000  Level Indianapolis Center
Tue 08:31:06 AM 40.5850 -87.0844 335° Northwest 240 276 26,000  Level Indianapolis Center
Tue 08:32:08 AM 40.6497 -87.1136 341° North 244 281 26,000  Level Indianapolis Center
Tue 08:33:10 AM 40.7111 -87.1478 337° Northwest 241 277 26,000  Level Indianapolis Center
Tue 08:34:11 AM 40.7731 -87.1789 339° North 239 275 26,000  Level Indianapolis Center
Tue 08:35:13 AM 40.8356 -87.2131 338° Northwest 243 280 26,000  Level Indianapolis Center
Tue 08:36:15 AM 40.8981 -87.2456 339° North 243 280 26,000  Level Indianapolis Center
Tue 08:37:44 AM 40.9958 -87.2967 338° Northwest 240 276 26,000  Level Chicago Center
Tue 08:38:46 AM 41.0564 -87.3292 338° Northwest 238 274 26,000  Level Chicago Center
Tue 08:39:48 AM 41.1175 -87.3603 339° North 237 273 26,000  Level Chicago Center
Tue 08:40:50 AM 41.1906 -87.3992 338° Northwest 238 274 26,000 48 Level Chicago Center
Tue 08:41:52 AM 41.2517 -87.4322 338° Northwest 239 275 26,100 49 Climbing Chicago Center
Tue 08:42:53 AM 41.3117 -87.4650 338° Northwest 236 272 26,100  Level Chicago Center
Tue 08:43:55 AM 41.3725 -87.4967 339° North 237 273 26,100  Level Chicago Center
Tue 08:44:57 AM 41.4333 -87.5283 339° North 236 272 26,100  Level Chicago Center
Tue 08:45:59 AM 41.5050 -87.5672 338° Northwest 234 269 26,100  Level Chicago Center
Tue 08:47:01 AM 41.5644 -87.6006 337° Northwest 235 270 26,100  Level Chicago Center
Tue 08:48:03 AM 41.6050 -87.6556 315° West 210 242 26,100  Level Chicago Center
Tue 08:49:05 AM 41.6508 -87.7083 319° Northwest 217 250 26,100  Level Chicago Center
Tue 08:50:07 AM 41.6947 -87.7608 318° Northwest 215 247 26,100  Level Chicago Center
Tue 08:51:09 AM 41.7489 -87.8253 318° Northwest 219 252 26,100 -145 Level Chicago Center
Tue 08:52:11 AM 41.7919 -87.8794 317° Northwest 216 249 25,800 -581 Descending Chicago Center
Tue 08:53:13 AM 41.8381 -87.9383 316° Northwest 229 264 24,900 -823 Descending Chicago Center
Tue 08:54:15 AM 41.8897 -87.9983 319° Northwest 245 282 24,100 -435 Descending Chicago Center
Tue 08:55:17 AM 41.9381 -88.0578 318° Northwest 241 277 24,000 -48 Descending Chicago Center
Tue 08:56:19 AM 41.9925 -88.1222 319° Northwest 224 258 24,000 -97 Level Chicago Center
Tue 08:57:21 AM 42.0372 -88.1775 317° Northwest 220 253 23,800 -677 Descending Chicago Center
Tue 08:58:23 AM 42.0842 -88.2383 316° Northwest 232 267 22,600 -871 Descending Chicago Center
Tue 08:59:25 AM 42.1358 -88.3014 318° Northwest 248 285 22,000 -823 Descending Chicago Center
Tue 09:00:27 AM 42.1847 -88.3603 318° Northwest 242 278 20,900 -1,065 Descending Chicago Center
Tue 09:01:29 AM 42.2328 -88.4228 316° Northwest 240 276 19,800 -1,161 Descending Chicago Center
Tue 09:02:31 AM 42.2919 -88.4939 318° Northwest 239 275 18,500 -1,161 Descending Chicago Center
Tue 09:03:33 AM 42.3408 -88.5586 316° Northwest 242 278 17,400 -1,065 Descending Chicago Center
Tue 09:04:35 AM 42.3922 -88.6208 318° Northwest 246 283 16,300 -1,065 Descending Chicago Center
Tue 09:05:37 AM 42.4414 -88.6800 318° Northwest 240 276 15,200 -581 Descending Chicago Center
Tue 09:06:39 AM 42.4886 -88.7403 317° Northwest 231 266 15,100 -242 Descending Chicago Center
Tue 09:07:41 AM 42.5358 -88.7986 318° Northwest 228 262 14,700 -726 Descending Chicago Center
Tue 09:08:43 AM 42.5944 -88.8717 317° Northwest 237 273 13,600 -1,016 Descending Chicago Center
Tue 09:09:45 AM 42.6439 -88.9336 317° Northwest 240 276 12,600 -1,452 Descending Chicago Center
Tue 09:10:47 AM 42.6917 -88.9947 317° Northwest 236 272 10,600 -1,728 Descending Chicago Center
Tue 09:11:50 AM 42.7389 -89.0569 316° Northwest 235 270 9,000 -1,488 Descending Chicago Center
Tue 09:12:52 AM 42.7850 -89.1133 318° Northwest 226 260 7,500 -1,452 Descending Chicago Center
Tue 09:13:54 AM 42.8308 -89.1700 318° Northwest 223 257 6,000 -1,548 Descending Chicago Center
Tue 09:14:56 AM 42.8817 -89.2344 317° Northwest 209 241 4,300 -919 Descending Chicago Center
Tue 09:15:58 AM 42.9239 -89.2892 317° Northwest 210 242 4,100 -145 Descending Chicago Center
Tue 09:17:00 AM 42.9683 -89.3158 336° Northwest 193 222 4,000 -242 Descending Chicago Center
Tue 09:18:02 AM 43.0175 -89.3344 345° North 188 216 3,600 -435 Descending Chicago Center
Tue 09:19:04 AM 43.0500 -89.3769 316° Northwest 179 206 3,100 -435 Descending Chicago Center
Tue 09:20:06 AM 43.0758 -89.4169 311° West 158 182 2,700 -194 Descending Chicago Center
Tue 09:21:08 AM 43.1008 -89.4469 319° Northwest 126 145 2,700 -435 Level Chicago Center
Tue 09:22:10 AM 43.1086 -89.4822 287° West 108 124 1,800 -624 Descending Chicago Center
Tue 09:23:13 AM 43.1128 -89.5186 279° West 100 115 1,400 -381 Descending Chicago Center

Login

Don't have an account? Register now (free) for customized features, flight alerts, and more!